Time;durP1;ratioP1;P1;durP2;ratioP2;P2;SDS_P1;SDS_P2;PMS_P1;PMS_P2;Temp;Humidity;BMP_temperature;BMP_pressure;BME280_temperature;BME280_humidity;BME280_pressure;Samples;Min_cycle;Max_cycle;Signal;HPM_P1;HPM_P2
2023/07/21 00:02:43;;;;;;;0.73;0.65;;;;;;;;;;10216652;29;20526;-84
2023/07/21 00:07:48;;;;;;;0.60;0.60;;;;;;;;;;10226660;29;20130;-84
2023/07/21 00:12:51;;;;;;;2.10;0.70;;;;;;;;;;10222353;29;20078;-84
2023/07/21 00:17:56;;;;;;;2.85;0.50;;;;;;;;;;10221179;28;20553;-84
2023/07/21 00:22:59;;;;;;;1.15;0.80;;;;;;;;;;10225777;28;20130;-84
2023/07/21 00:28:03;;;;;;;0.85;0.60;;;;;;;;;;10211754;28;20081;-84
2023/07/21 00:33:08;;;;;;;2.55;0.80;;;;;;;;;;10232487;28;20051;-84
2023/07/21 00:38:11;;;;;;;1.90;0.85;;;;;;;;;;10223836;29;20688;-84
2023/07/21 00:43:18;;;;;;;2.35;0.68;;;;;;;;;;10210596;29;20040;-84
2023/07/21 00:48:22;;;;;;;2.38;0.95;;;;;;;;;;10209364;29;20043;-84
2023/07/21 00:53:27;;;;;;;2.63;0.60;;;;;;;;;;10230868;28;20047;-85
2023/07/21 00:58:32;;;;;;;0.65;0.63;;;;;;;;;;10205537;29;20470;-86
2023/07/21 01:03:39;;;;;;;2.20;0.65;;;;;;;;;;10199443;29;20095;-83
2023/07/21 01:08:43;;;;;;;1.40;0.63;;;;;;;;;;10229838;28;20761;-83
2023/07/21 01:13:47;;;;;;;3.92;0.80;;;;;;;;;;10201093;29;20173;-83
2023/07/21 01:18:53;;;;;;;0.88;0.60;;;;;;;;;;10199484;29;20083;-83
2023/07/21 01:24:05;;;;;;;2.25;0.60;;;;;;;;;;10216878;28;20193;-83
2023/07/21 01:29:10;;;;;;;0.77;0.57;;;;;;;;;;10222438;29;20083;-83
2023/07/21 01:34:14;;;;;;;1.58;0.32;;;;;;;;;;10232379;29;20142;-83
2023/07/21 01:39:19;;;;;;;0.68;0.63;;;;;;;;;;10202434;29;20043;-83
2023/07/21 01:44:24;;;;;;;1.00;0.52;;;;;;;;;;10226213;29;20057;-83
2023/07/21 01:49:27;;;;;;;1.27;0.90;;;;;;;;;;10201923;29;20043;-83
2023/07/21 01:54:37;;;;;;;1.45;0.82;;;;;;;;;;10224788;28;20111;-83
2023/07/21 01:59:46;;;;;;;1.63;0.63;;;;;;;;;;10210905;29;20047;-84
2023/07/21 02:04:51;;;;;;;1.02;0.55;;;;;;;;;;10204325;29;20098;-83
2023/07/21 02:09:54;;;;;;;0.90;0.50;;;;;;;;;;10220363;29;20715;-83
2023/07/21 02:15:00;;;;;;;3.03;0.90;;;;;;;;;;10201507;29;20123;-82
2023/07/21 02:20:09;;;;;;;0.85;0.57;;;;;;;;;;10232568;28;20047;-83
2023/07/21 02:25:13;;;;;;;1.40;0.70;;;;;;;;;;10197565;29;20048;-83
2023/07/21 02:30:18;;;;;;;2.30;0.60;;;;;;;;;;10218551;29;20051;-82
2023/07/21 02:35:21;;;;;;;1.48;0.93;;;;;;;;;;10202872;29;20590;-82
2023/07/21 02:40:25;;;;;;;3.13;0.80;;;;;;;;;;10222670;29;20554;-83
2023/07/21 02:45:30;;;;;;;1.77;0.90;;;;;;;;;;10217823;29;20039;-84
2023/07/21 02:50:34;;;;;;;2.92;0.70;;;;;;;;;;10221728;29;20050;-83
2023/07/21 02:55:38;;;;;;;1.67;0.70;;;;;;;;;;10209250;28;20507;-83
2023/07/21 03:00:43;;;;;;;1.08;0.60;;;;;;;;;;10234220;29;20055;-83
2023/07/21 03:05:57;;;;;;;0.67;0.60;;;;;;;;;;10218615;28;20050;-82
2023/07/21 03:11:01;;;;;;;1.45;0.50;;;;;;;;;;10214595;28;20055;-83
2023/07/21 03:16:08;;;;;;;;;;;;;;;;;;10194451;29;20058;-83
2023/07/21 16:03:05;;;;;;;0.60;0.40;;;;;;;;;;10264574;28;20034;-93
2023/07/21 16:08:12;;;;;;;1.00;0.60;;;;;;;;;;10283433;28;20044;-96
2023/07/21 16:13:16;;;;;;;1.00;0.70;;;;;;;;;;10259891;28;20046;-93
2023/07/21 16:18:22;;;;;;;1.83;0.40;;;;;;;;;;10262362;28;20465;-92
2023/07/21 16:23:27;;;;;;;0.40;0.40;;;;;;;;;;10260009;28;20073;-93
2023/07/21 16:28:33;;;;;;;0.60;0.50;;;;;;;;;;10263987;28;20101;-94
2023/07/21 16:33:38;;;;;;;0.60;0.60;;;;;;;;;;10275827;28;20050;-92
2023/07/21 16:38:45;;;;;;;0.50;0.50;;;;;;;;;;10266711;28;20042;-93
2023/07/21 16:43:48;;;;;;;3.53;1.50;;;;;;;;;;10282153;28;20047;-92
2023/07/21 16:48:54;;;;;;;1.70;1.17;;;;;;;;;;10258913;28;20035;-92
2023/07/21 16:53:57;;;;;;;1.63;0.60;;;;;;;;;;10248868;28;20644;-92
2023/07/21 16:59:01;;;;;;;2.88;1.20;;;;;;;;;;10247261;28;20562;-92
2023/07/21 17:04:06;;;;;;;2.35;1.00;;;;;;;;;;10267836;28;20122;-91
2023/07/21 17:09:10;;;;;;;1.00;0.70;;;;;;;;;;10286701;28;20043;-91
2023/07/21 17:14:14;;;;;;;0.68;0.50;;;;;;;;;;10261795;28;20110;-92
2023/07/21 17:19:21;;;;;;;1.25;0.40;;;;;;;;;;10255756;28;20057;-93
2023/07/21 17:24:33;;;;;;;1.98;0.93;;;;;;;;;;10290044;28;20055;-92
2023/07/21 17:29:38;;;;;;;1.52;0.70;;;;;;;;;;10256933;28;20047;-92
2023/07/21 17:34:44;;;;;;;1.83;1.00;;;;;;;;;;10251631;28;20070;-92
2023/07/21 17:39:47;;;;;;;1.77;1.08;;;;;;;;;;10272877;28;20047;-91
2023/07/21 17:44:51;;;;;;;1.52;0.85;;;;;;;;;;10272714;28;20400;-91
2023/07/21 17:49:56;;;;;;;2.75;0.70;;;;;;;;;;10244110;28;20430;-91
2023/07/21 17:55:00;;;;;;;0.60;0.50;;;;;;;;;;10255613;28;20519;-92
2023/07/21 18:00:07;;;;;;;1.35;0.80;;;;;;;;;;10268459;28;20035;-92
2023/07/21 18:05:20;;;;;;;0.55;0.50;;;;;;;;;;10297213;28;20581;-92
2023/07/21 18:10:23;;;;;;;0.57;0.57;;;;;;;;;;10291005;28;20043;-91
2023/07/21 18:15:33;;;;;;;1.00;0.60;;;;;;;;;;10284348;28;20054;-91
2023/07/21 18:20:38;;;;;;;1.27;0.47;;;;;;;;;;10285652;28;20051;-91
2023/07/21 18:25:48;;;;;;;0.90;0.60;;;;;;;;;;10262457;28;20596;-92
2023/07/21 18:30:51;;;;;;;1.25;0.63;;;;;;;;;;10279972;28;20039;-92
2023/07/21 18:35:57;;;;;;;0.60;0.50;;;;;;;;;;10270745;28;20555;-91
2023/07/21 18:41:00;;;;;;;0.60;0.60;;;;;;;;;;10279118;28;20054;-91
2023/07/21 18:46:04;;;;;;;0.75;0.63;;;;;;;;;;10261358;28;20058;-91
2023/07/21 18:51:08;;;;;;;0.45;0.45;;;;;;;;;;10249437;28;20049;-91
2023/07/21 18:56:13;;;;;;;0.55;0.50;;;;;;;;;;10282779;28;20031;-93
2023/07/21 19:01:20;;;;;;;0.77;0.60;;;;;;;;;;10255424;28;20540;-92
2023/07/21 19:06:26;;;;;;;1.15;0.50;;;;;;;;;;10277598;28;20094;-92
2023/07/21 19:11:30;;;;;;;1.03;0.50;;;;;;;;;;10279968;28;20046;-92
2023/07/21 19:16:33;;;;;;;1.58;0.65;;;;;;;;;;10254699;28;20059;-91
2023/07/21 19:21:38;;;;;;;0.70;0.70;;;;;;;;;;10263472;28;20046;-92
2023/07/21 19:26:43;;;;;;;0.52;0.52;;;;;;;;;;10265825;28;20046;-91
2023/07/21 19:31:47;;;;;;;0.73;0.70;;;;;;;;;;10268586;28;20054;-91
2023/07/21 19:36:52;;;;;;;0.70;0.52;;;;;;;;;;10262360;28;20054;-91
2023/07/21 19:41:56;;;;;;;0.50;0.50;;;;;;;;;;10271296;28;20035;-91
2023/07/21 19:47:00;;;;;;;0.60;0.52;;;;;;;;;;10252502;28;20106;-91
2023/07/21 19:52:06;;;;;;;0.73;0.60;;;;;;;;;;10274885;28;20449;-91
2023/07/21 19:57:10;;;;;;;1.33;0.88;;;;;;;;;;10262865;28;20043;-91
2023/07/21 20:02:13;;;;;;;0.70;0.55;;;;;;;;;;10283069;28;20094;-91
2023/07/21 20:07:19;;;;;;;0.50;0.50;;;;;;;;;;10268726;28;20133;-91
2023/07/21 20:12:23;;;;;;;0.75;0.60;;;;;;;;;;10270749;28;20043;-91
2023/07/21 20:17:26;;;;;;;0.70;0.63;;;;;;;;;;10264552;28;20035;-91
2023/07/21 20:22:32;;;;;;;1.73;0.82;;;;;;;;;;10267159;28;20045;-90
2023/07/21 20:27:38;;;;;;;0.90;0.52;;;;;;;;;;10259729;28;20046;-91
2023/07/21 20:32:44;;;;;;;1.58;0.82;;;;;;;;;;10295067;28;20101;-91
2023/07/21 20:37:49;;;;;;;0.68;0.65;;;;;;;;;;10266552;28;20142;-91
2023/07/21 20:42:53;;;;;;;0.88;0.60;;;;;;;;;;10251362;28;20053;-91
2023/07/21 20:47:56;;;;;;;1.17;0.88;;;;;;;;;;10284895;28;20054;-91
2023/07/21 20:53:03;;;;;;;1.77;0.88;;;;;;;;;;10300744;28;20679;-92
2023/07/21 20:58:07;;;;;;;1.00;0.90;;;;;;;;;;10258547;28;20039;-91
2023/07/21 21:03:10;;;;;;;2.33;0.90;;;;;;;;;;10228333;28;20058;-92
2023/07/21 21:08:15;;;;;;;1.77;0.52;;;;;;;;;;10246627;28;20043;-91
2023/07/21 21:13:19;;;;;;;1.20;0.93;;;;;;;;;;10260391;28;20047;-92
2023/07/21 21:18:23;;;;;;;0.90;0.75;;;;;;;;;;10267495;28;20074;-92
2023/07/21 21:23:28;;;;;;;1.58;0.68;;;;;;;;;;10283957;28;20510;-91
2023/07/21 21:28:32;;;;;;;2.38;0.63;;;;;;;;;;10267271;28;20133;-91
2023/07/21 21:33:36;;;;;;;1.00;0.90;;;;;;;;;;10268141;28;20133;-91
2023/07/21 21:38:41;;;;;;;1.08;0.75;;;;;;;;;;10267500;28;20043;-91
2023/07/21 21:43:45;;;;;;;1.20;1.10;;;;;;;;;;10267100;28;20047;-91
2023/07/21 21:48:49;;;;;;;0.80;0.70;;;;;;;;;;10273695;28;20052;-92
2023/07/21 21:53:54;;;;;;;1.80;0.85;;;;;;;;;;10299971;28;20066;-92
2023/07/21 21:58:58;;;;;;;0.80;0.80;;;;;;;;;;10267674;28;20091;-92
2023/07/21 22:04:02;;;;;;;1.20;0.90;;;;;;;;;;10267348;28;20051;-91
2023/07/21 22:09:07;;;;;;;1.15;1.05;;;;;;;;;;10283310;28;20562;-93
2023/07/21 22:14:10;;;;;;;1.60;1.03;;;;;;;;;;10264507;28;20137;-92
2023/07/21 22:19:14;;;;;;;1.10;1.00;;;;;;;;;;10265764;28;20094;-90
2023/07/21 22:24:19;;;;;;;1.10;1.00;;;;;;;;;;10267219;28;20391;-92
2023/07/21 22:29:24;;;;;;;1.70;1.05;;;;;;;;;;10267087;28;20039;-92
2023/07/21 22:34:28;;;;;;;1.27;0.95;;;;;;;;;;10267576;28;20150;-92
2023/07/21 22:39:33;;;;;;;0.70;0.70;;;;;;;;;;10245022;28;20043;-92
2023/07/21 22:44:37;;;;;;;1.23;0.90;;;;;;;;;;10254135;28;20474;-92
2023/07/21 22:49:41;;;;;;;2.45;0.90;;;;;;;;;;10233232;29;20074;-93
2023/07/21 22:54:46;;;;;;;1.00;0.90;;;;;;;;;;10234668;29;20130;-93
2023/07/21 22:59:50;;;;;;;0.97;0.87;;;;;;;;;;10263216;28;20046;-93
2023/07/21 23:04:54;;;;;;;1.40;0.98;;;;;;;;;;10306050;28;20126;-92
2023/07/21 23:09:59;;;;;;;1.10;1.00;;;;;;;;;;10271772;28;20071;-92
2023/07/21 23:15:03;;;;;;;1.47;1.00;;;;;;;;;;10285341;28;20051;-93
2023/07/21 23:20:09;;;;;;;2.65;1.10;;;;;;;;;;10290095;28;20049;-93
2023/07/21 23:25:15;;;;;;;1.40;0.93;;;;;;;;;;10288353;28;20101;-92
2023/07/21 23:30:19;;;;;;;0.95;0.77;;;;;;;;;;10288500;28;20569;-90
2023/07/21 23:35:23;;;;;;;1.50;1.20;;;;;;;;;;10276580;28;20046;-91
2023/07/21 23:40:28;;;;;;;1.27;1.10;;;;;;;;;;10264975;28;20063;-91
2023/07/21 23:45:31;;;;;;;2.72;1.17;;;;;;;;;;10264702;28;20558;-90
2023/07/21 23:50:36;;;;;;;2.17;1.10;;;;;;;;;;10244486;28;20038;-91
2023/07/21 23:55:42;;;;;;;1.42;1.10;;;;;;;;;;10253698;28;20106;-91
